AirportContent of METAR report
LYBEMETAR LYBE 241730Z 02001KT CAVOK 23/12 Q1011 NOSIG=
LYBTMETAR LYBT 241730Z 28001KT CAVOK 20/12 Q1010 NOSIG=
LYKVMETAR LYKV 241730Z 00000KT CAVOK 20/14 Q1011 NOSIG=
LYNIMETAR LYNI 241730Z 07003KT CAVOK 20/13 Q1012 NOSIG=
LYVRMETAR LYVR 241730Z AUTO 16003KT 110V190 CAVOK 22/13 Q1011=
LYUZMETAR LYUZ 241730Z AUTO VRB01KT CAVOK 17/12 Q1015=
LYPGMETAR LYPG 241730Z 14004KT 9999 FEW100 21/18 Q1013 NOSIG=
LYTVMETAR LYTV 241730Z 00000KT CAVOK 20/18 Q1013 NOSIG=

Data loaded: 2020-09-24 17:36:06 UTC

METAR, TAF, AIRMET, GAMET, SIGMET

Important note: MET information on these web pages are informative and restricted to aeronautical users, must not be used for any commercial purpose, and do not replace flight documentation.